createdAt,value
2023-05-13T00:02:25.696Z,101101.45
2023-05-13T00:04:52.759Z,101098.46
2023-05-13T00:07:19.716Z,101100.98
2023-05-13T00:09:46.842Z,101097.11
2023-05-13T00:12:13.945Z,101094.85
2023-05-13T00:14:41.214Z,101100.55
2023-05-13T00:17:08.206Z,101101.65
2023-05-13T00:19:35.140Z,101101.43
2023-05-13T00:22:02.326Z,101101.02
2023-05-13T00:24:29.362Z,101099.85
2023-05-13T00:26:56.351Z,101095.22
2023-05-13T00:29:23.368Z,101097.07
2023-05-13T00:31:51.352Z,101094.04
2023-05-13T00:34:19.055Z,101094.12
2023-05-13T00:36:46.338Z,101090.29
2023-05-13T00:39:13.558Z,101095.79
2023-05-13T00:41:40.602Z,101095.07
2023-05-13T00:44:07.733Z,101094.35
2023-05-13T00:46:34.804Z,101097.42
2023-05-13T00:49:04.467Z,101098.39
2023-05-13T00:51:32.437Z,101099.54
2023-05-13T00:53:59.924Z,101102.69
2023-05-13T00:56:26.994Z,101101.91
2023-05-13T00:58:54.033Z,101102.92
2023-05-13T01:01:45.875Z,101103.42
2023-05-13T01:04:34.548Z,101109.90
2023-05-13T01:07:07.474Z,101114.30
2023-05-13T01:10:02.092Z,101116.79
2023-05-13T01:12:40.553Z,101114.77
2023-05-13T01:15:15.221Z,101115.52
2023-05-13T01:18:06.076Z,101113.75
2023-05-13T01:20:34.320Z,101117.48
2023-05-13T01:23:03.509Z,101115.34
2023-05-13T01:25:30.643Z,101112.76
2023-05-13T01:27:58.041Z,101111.66
2023-05-13T01:30:26.445Z,101102.64
2023-05-13T01:32:53.877Z,101103.02
2023-05-13T01:35:23.024Z,101109.83
2023-05-13T01:37:50.520Z,101115.33
2023-05-13T01:40:31.603Z,101119.95
2023-05-13T01:43:00.633Z,101123.50
2023-05-13T01:45:32.973Z,101124.32
2023-05-13T01:48:00.151Z,101121.26
2023-05-13T01:50:27.299Z,101123.34
2023-05-13T01:52:54.467Z,101121.67
2023-05-13T01:55:21.513Z,101126.67
2023-05-13T01:57:48.590Z,101129.34
2023-05-13T02:00:15.881Z,101128.66
2023-05-13T02:02:43.103Z,101127.38
2023-05-13T02:05:10.247Z,101126.64
2023-05-13T02:07:37.242Z,101124.95
2023-05-13T02:10:04.592Z,101129.56
2023-05-13T02:12:31.662Z,101132.75
2023-05-13T02:14:58.729Z,101131.91
2023-05-13T02:17:25.971Z,101134.97
2023-05-13T02:19:53.129Z,101129.92
2023-05-13T02:22:20.203Z,101123.09
2023-05-13T02:24:47.185Z,101123.03
2023-05-13T02:27:15.922Z,101123.92
2023-05-13T02:29:42.978Z,101127.10
2023-05-13T02:32:10.302Z,101127.73
2023-05-13T02:34:37.452Z,101124.38
2023-05-13T02:37:05.218Z,101122.95
2023-05-13T02:39:32.141Z,101121.48
2023-05-13T02:41:59.469Z,101127.51
2023-05-13T02:44:26.545Z,101130.34
2023-05-13T02:46:53.519Z,101128.80
2023-05-13T02:49:20.664Z,101130.32
2023-05-13T02:51:48.032Z,101128.89
2023-05-13T02:54:15.077Z,101124.73
2023-05-13T02:56:42.053Z,101121.42
2023-05-13T02:59:09.038Z,101121.70
2023-05-13T03:01:36.033Z,101120.75
2023-05-13T03:04:03.390Z,101128.43
2023-05-13T03:06:31.304Z,101129.59
2023-05-13T03:08:58.196Z,101130.67
2023-05-13T03:11:26.346Z,101129.61
2023-05-13T03:13:53.280Z,101128.92
2023-05-13T03:16:20.273Z,101133.44
2023-05-13T03:18:47.447Z,101137.59
2023-05-13T03:21:14.538Z,101140.11
2023-05-13T03:23:41.801Z,101134.77
2023-05-13T03:26:08.733Z,101130.95
2023-05-13T03:28:35.774Z,101124.98
2023-05-13T03:31:02.994Z,101122.14
2023-05-13T03:33:29.987Z,101123.38
2023-05-13T03:35:56.982Z,101121.94
2023-05-13T03:38:24.026Z,101122.58
2023-05-13T03:40:51.088Z,101123.08
2023-05-13T03:43:18.284Z,101130.50
2023-05-13T03:45:48.188Z,101135.09
2023-05-13T03:48:15.460Z,101138.42
2023-05-13T03:50:42.658Z,101134.58
2023-05-13T03:53:12.650Z,101138.59
2023-05-13T03:55:39.639Z,101148.80
2023-05-13T03:58:15.516Z,101150.13
2023-05-13T04:00:46.213Z,101152.31
2023-05-13T04:03:13.835Z,101151.06
2023-05-13T04:05:41.003Z,101152.48
2023-05-13T04:08:08.079Z,101154.27
2023-05-13T04:10:35.129Z,101153.55
2023-05-13T04:13:02.145Z,101155.19
2023-05-13T04:15:30.359Z,101156.63
2023-05-13T04:17:58.083Z,101156.86
2023-05-13T04:20:25.652Z,101155.17
2023-05-13T04:22:52.575Z,101147.55
2023-05-13T04:25:19.741Z,101148.88
2023-05-13T04:27:49.830Z,101147.83
2023-05-13T04:30:16.887Z,101149.27
2023-05-13T04:32:44.138Z,101150.95
2023-05-13T04:35:11.162Z,101158.37
2023-05-13T04:37:38.166Z,101161.73
2023-05-13T04:40:06.664Z,101171.85
2023-05-13T04:42:34.243Z,101164.98
2023-05-13T04:45:01.252Z,101158.30
2023-05-13T04:47:30.368Z,101173.23
2023-05-13T04:49:57.496Z,101178.73
2023-05-13T04:52:25.033Z,101174.35
2023-05-13T04:54:52.206Z,101169.51
2023-05-13T04:57:19.165Z,101175.08
2023-05-13T04:59:46.166Z,101175.80
2023-05-13T05:02:13.179Z,101177.27
2023-05-13T05:04:40.262Z,101178.42
2023-05-13T05:07:07.195Z,101181.16
2023-05-13T05:09:34.224Z,101179.91
2023-05-13T05:12:01.255Z,101185.20
2023-05-13T05:14:28.323Z,101182.63
2023-05-13T05:16:55.417Z,101178.99
2023-05-13T05:19:24.001Z,101180.94
2023-05-13T05:21:52.040Z,101184.17
2023-05-13T05:24:19.350Z,101184.80
2023-05-13T05:26:46.332Z,101192.16
2023-05-13T05:29:13.381Z,101194.05
2023-05-13T05:31:40.794Z,101192.29
2023-05-13T05:34:07.829Z,101193.09
2023-05-13T05:36:36.678Z,101193.36
2023-05-13T05:39:05.500Z,101190.23
2023-05-13T05:41:33.067Z,101189.63
2023-05-13T05:43:59.948Z,101188.98
2023-05-13T05:46:27.373Z,101179.41
2023-05-13T05:48:54.504Z,101176.52
2023-05-13T05:51:21.484Z,101179.16
2023-05-13T05:53:48.414Z,101180.50
2023-05-13T05:56:15.645Z,101179.39
2023-05-13T05:58:42.951Z,101172.41
2023-05-13T06:01:10.252Z,101171.77
2023-05-13T06:03:37.392Z,101175.01
2023-05-13T06:06:04.687Z,101178.06
2023-05-13T06:08:32.004Z,101181.33
2023-05-13T06:10:59.712Z,101180.09
2023-05-13T06:13:27.274Z,101177.90
2023-05-13T06:15:54.851Z,101180.29
2023-05-13T06:18:22.458Z,101181.02
2023-05-13T06:20:49.582Z,101178.69
2023-05-13T06:23:16.989Z,101176.70
2023-05-13T06:25:43.940Z,101174.95
2023-05-13T06:28:11.818Z,101176.84
2023-05-13T06:30:39.065Z,101177.12
2023-05-13T06:33:08.062Z,101172.52
2023-05-13T06:35:35.223Z,101170.89
2023-05-13T06:38:02.288Z,101170.00
2023-05-13T06:40:29.502Z,101169.50
2023-05-13T06:42:56.631Z,101169.55
2023-05-13T06:45:25.513Z,101170.73
2023-05-13T06:47:53.498Z,101173.21
2023-05-13T06:50:20.861Z,101175.55
2023-05-13T06:52:48.400Z,101180.14
2023-05-13T06:55:18.219Z,101175.48
2023-05-13T06:57:46.423Z,101175.33
2023-05-13T07:00:15.341Z,101173.86
2023-05-13T07:02:42.482Z,101169.73
2023-05-13T07:05:11.700Z,101170.02
2023-05-13T07:07:39.020Z,101166.99
2023-05-13T07:10:06.253Z,101165.02
2023-05-13T07:12:33.311Z,101161.06
2023-05-13T07:15:00.367Z,101163.95
2023-05-13T07:17:28.371Z,101165.86
2023-05-13T07:19:56.381Z,101161.63
2023-05-13T07:22:24.191Z,101162.89
2023-05-13T07:24:51.133Z,101162.83
2023-05-13T07:27:18.168Z,101163.02
2023-05-13T07:29:45.239Z,101165.42
2023-05-13T07:32:12.213Z,101167.23
2023-05-13T07:34:39.467Z,101162.70
2023-05-13T07:37:06.509Z,101160.89
2023-05-13T07:39:33.698Z,101162.17
2023-05-13T07:42:00.854Z,101158.23
2023-05-13T07:44:27.916Z,101160.79
2023-05-13T07:46:55.163Z,101157.41
2023-05-13T07:49:22.298Z,101157.12
2023-05-13T07:51:49.388Z,101153.29
2023-05-13T07:54:16.380Z,101148.95
2023-05-13T07:56:43.859Z,101144.18
2023-05-13T07:59:10.934Z,101146.33
2023-05-13T08:01:37.950Z,101142.58
2023-05-13T08:04:05.229Z,101145.77
2023-05-13T08:06:32.822Z,101143.40
2023-05-13T08:09:00.978Z,101143.37
2023-05-13T08:11:28.676Z,101141.87
2023-05-13T08:13:55.739Z,101142.01
2023-05-13T08:16:22.950Z,101139.88
2023-05-13T08:18:50.151Z,101139.80
2023-05-13T08:21:17.399Z,101137.02
2023-05-13T08:23:45.779Z,101132.09
2023-05-13T08:26:13.566Z,101134.56
2023-05-13T08:28:40.953Z,101131.23
2023-05-13T08:31:11.995Z,101131.77
2023-05-13T08:33:41.370Z,101132.66
2023-05-13T08:36:09.454Z,101136.81
2023-05-13T08:38:36.612Z,101136.38
2023-05-13T08:41:06.026Z,101134.98
2023-05-13T08:43:33.969Z,101134.52
2023-05-13T08:46:03.718Z,101128.85
2023-05-13T08:48:32.217Z,101129.71
2023-05-13T08:51:01.816Z,101127.05
2023-05-13T08:53:29.319Z,101123.50
2023-05-13T08:55:57.272Z,101122.29
2023-05-13T08:58:25.391Z,101124.15
2023-05-13T09:00:55.677Z,101124.19
2023-05-13T09:03:22.753Z,101120.09
2023-05-13T09:05:50.441Z,101121.72
2023-05-13T09:08:17.761Z,101118.16
2023-05-13T09:10:45.411Z,101119.26
2023-05-13T09:13:13.897Z,101124.54
2023-05-13T09:15:42.920Z,101117.70
2023-05-13T09:18:10.674Z,101113.35
2023-05-13T09:20:38.239Z,101110.77
2023-05-13T09:23:10.785Z,101110.91
2023-05-13T09:25:38.702Z,101113.52
2023-05-13T09:28:07.697Z,101109.98
2023-05-13T09:30:45.649Z,101106.77
2023-05-13T09:33:19.384Z,101105.79
2023-05-13T09:35:53.738Z,101102.38
2023-05-13T09:38:25.427Z,101099.76
2023-05-13T09:41:00.620Z,101098.73
2023-05-13T09:43:31.937Z,101099.69
2023-05-13T09:46:03.905Z,101095.34
2023-05-13T09:48:34.770Z,101096.35
2023-05-13T09:51:01.916Z,101092.44
2023-05-13T09:53:29.118Z,101094.17
2023-05-13T09:55:58.389Z,101089.93
2023-05-13T09:58:30.320Z,101084.16
2023-05-13T10:00:58.101Z,101078.23
2023-05-13T10:03:25.453Z,101079.96
2023-05-13T10:05:53.367Z,101079.50
2023-05-13T10:08:22.224Z,101082.34
2023-05-13T10:10:53.472Z,101079.77
2023-05-13T10:13:23.693Z,101075.56
2023-05-13T10:15:53.195Z,101075.00
2023-05-13T10:18:23.398Z,101071.67
2023-05-13T10:20:52.958Z,101068.06
2023-05-13T10:23:24.760Z,101070.20
2023-05-13T10:25:54.677Z,101071.20
2023-05-13T10:28:22.011Z,101071.43
2023-05-13T10:30:52.097Z,101065.60
2023-05-13T10:33:20.210Z,101059.16
2023-05-13T10:36:18.121Z,101052.39
2023-05-13T10:39:16.204Z,101047.59
2023-05-13T10:42:10.975Z,101049.68
2023-05-13T10:44:37.994Z,101055.09
2023-05-13T10:47:05.074Z,101055.70
2023-05-13T10:49:34.049Z,101050.88
2023-05-13T10:52:09.862Z,101054.55
2023-05-13T10:54:40.217Z,101050.55
2023-05-13T10:57:10.112Z,101050.48
2023-05-13T10:59:38.529Z,101046.30
2023-05-13T11:02:23.178Z,101049.34
2023-05-13T11:05:00.770Z,101047.53
2023-05-13T11:07:29.468Z,101046.87
2023-05-13T11:09:56.872Z,101049.06
2023-05-13T11:12:23.851Z,101049.87
2023-05-13T11:14:55.638Z,101047.01
2023-05-13T11:17:22.740Z,101052.89
2023-05-13T11:19:50.624Z,101054.11
2023-05-13T11:22:23.554Z,101047.66
2023-05-13T11:25:10.602Z,101047.15
2023-05-13T11:27:39.783Z,101046.02
2023-05-13T11:30:08.835Z,101044.00
2023-05-13T11:32:53.813Z,101044.61
2023-05-13T11:35:29.166Z,101043.15
2023-05-13T11:37:59.869Z,101046.58
2023-05-13T11:40:33.012Z,101043.20
2023-05-13T11:43:01.112Z,101044.30
2023-05-13T11:45:29.679Z,101050.34
2023-05-13T11:47:57.494Z,101046.84
2023-05-13T11:50:30.101Z,101046.02
2023-05-13T11:52:59.634Z,101046.04
2023-05-13T11:55:35.799Z,101046.48
2023-05-13T11:58:03.455Z,101041.42
2023-05-13T12:00:34.395Z,101039.40
2023-05-13T12:03:08.961Z,101031.60
2023-05-13T12:05:36.717Z,101029.52
2023-05-13T12:08:04.095Z,101031.30
2023-05-13T12:10:31.187Z,101024.37
2023-05-13T12:12:58.188Z,101027.80
2023-05-13T12:15:25.810Z,101028.59
2023-05-13T12:17:54.307Z,101024.49
2023-05-13T12:20:24.456Z,101022.87
2023-05-13T12:22:53.580Z,101020.85
2023-05-13T12:25:33.093Z,101021.67
2023-05-13T12:28:16.401Z,101019.52
2023-05-13T12:30:50.896Z,101015.88
2023-05-13T12:33:20.886Z,101012.19
2023-05-13T12:35:50.455Z,101014.52
2023-05-13T12:38:23.759Z,101016.23
2023-05-13T12:40:52.087Z,101013.04
2023-05-13T12:43:19.851Z,101012.48
2023-05-13T12:45:52.396Z,101016.77
2023-05-13T12:48:22.994Z,101014.79
2023-05-13T12:50:53.232Z,101011.86
2023-05-13T12:53:20.954Z,101013.09
2023-05-13T12:55:47.968Z,101004.89
2023-05-13T12:58:15.141Z,101000.11
2023-05-13T13:00:42.337Z,101001.40
2023-05-13T13:03:09.582Z,100995.99
2023-05-13T13:05:36.820Z,100999.34
2023-05-13T13:08:06.615Z,101000.56
2023-05-13T13:10:33.796Z,101002.75
2023-05-13T13:13:01.170Z,100998.86
2023-05-13T13:15:28.268Z,100993.48
2023-05-13T13:17:55.400Z,100993.43
2023-05-13T13:20:22.678Z,100996.63
2023-05-13T13:22:49.794Z,100997.30
2023-05-13T13:25:17.179Z,100992.35
2023-05-13T13:27:44.836Z,100994.77
2023-05-13T13:30:12.804Z,100993.23
2023-05-13T13:32:41.088Z,100993.31
2023-05-13T13:35:08.824Z,100989.06
2023-05-13T13:37:37.963Z,100988.35
2023-05-13T13:40:05.882Z,100989.43
2023-05-13T13:42:44.075Z,100982.23
2023-05-13T13:45:13.382Z,100987.59
2023-05-13T13:47:41.787Z,100985.95
2023-05-13T13:50:09.484Z,100983.20
2023-05-13T13:52:36.550Z,100986.84
2023-05-13T13:55:04.020Z,100982.36
2023-05-13T13:57:30.980Z,100986.11
2023-05-13T13:59:58.131Z,100985.30
2023-05-13T14:02:25.290Z,100982.10
2023-05-13T14:04:53.543Z,100980.20
2023-05-13T14:07:20.597Z,100973.14
2023-05-13T14:09:49.391Z,100973.29
2023-05-13T14:12:16.781Z,100977.69
2023-05-13T14:14:43.775Z,100967.26
2023-05-13T14:17:12.287Z,100968.09
2023-05-13T14:19:40.334Z,100972.04
2023-05-13T14:22:07.492Z,100969.02
2023-05-13T14:24:34.589Z,100967.73
2023-05-13T14:27:01.824Z,100965.61
2023-05-13T14:29:28.853Z,100967.19
2023-05-13T14:31:56.041Z,100967.20
2023-05-13T14:34:23.332Z,100962.39
2023-05-13T14:36:51.052Z,100961.29
2023-05-13T14:39:18.106Z,100959.58
2023-05-13T14:41:45.806Z,100954.52
2023-05-13T14:44:13.696Z,100959.09
2023-05-13T14:46:41.459Z,100963.90
2023-05-13T14:49:08.484Z,100960.53
2023-05-13T14:51:35.600Z,100963.73
2023-05-13T14:54:03.167Z,100961.59
2023-05-13T14:56:30.313Z,100966.71
2023-05-13T14:58:57.627Z,100962.82
2023-05-13T15:01:24.849Z,100965.57
2023-05-13T15:03:52.177Z,100968.00
2023-05-13T15:06:19.195Z,100967.68
2023-05-13T15:08:46.591Z,100961.51
2023-05-13T15:11:13.532Z,100965.67
2023-05-13T15:13:40.508Z,100972.28
2023-05-13T15:16:07.786Z,100971.09
2023-05-13T15:18:34.874Z,100972.10
2023-05-13T15:21:01.984Z,100971.42
2023-05-13T15:23:29.053Z,100970.16
2023-05-13T15:25:56.063Z,100971.35
2023-05-13T15:28:23.146Z,100970.06
2023-05-13T15:30:50.728Z,100979.43
2023-05-13T15:33:17.739Z,100985.94
2023-05-13T15:35:44.945Z,100992.50
2023-05-13T15:38:12.012Z,100992.88
2023-05-13T15:40:39.169Z,100988.48
2023-05-13T15:43:06.148Z,100991.58
2023-05-13T15:45:34.169Z,100992.13
2023-05-13T15:48:01.832Z,100986.55
2023-05-13T15:50:28.897Z,100988.15
2023-05-13T15:52:55.921Z,100983.09
2023-05-13T15:55:22.974Z,100984.84
2023-05-13T15:57:50.544Z,100980.33
2023-05-13T16:00:18.543Z,100975.08
2023-05-13T16:02:45.755Z,100976.48
2023-05-13T16:05:15.145Z,100975.00
2023-05-13T16:07:42.392Z,100975.34
2023-05-13T16:10:09.872Z,100974.08
2023-05-13T16:12:37.242Z,100968.86
2023-05-13T16:15:05.147Z,100967.76
2023-05-13T16:17:32.798Z,100967.56
2023-05-13T16:20:00.033Z,100972.42
2023-05-13T16:22:33.107Z,100972.61
2023-05-13T16:25:10.025Z,100969.92
2023-05-13T16:27:38.703Z,100966.70
2023-05-13T16:30:07.026Z,100966.52
2023-05-13T16:32:34.581Z,100967.63
2023-05-13T16:35:02.823Z,100967.30
2023-05-13T16:37:34.174Z,100968.92
2023-05-13T16:40:01.328Z,100966.25
2023-05-13T16:42:28.456Z,100968.24
2023-05-13T16:44:55.596Z,100965.20
2023-05-13T16:47:22.627Z,100966.09
2023-05-13T16:49:51.919Z,100967.88
2023-05-13T16:52:18.863Z,100967.00
2023-05-13T16:54:45.939Z,100965.21
2023-05-13T16:57:15.240Z,100965.40
2023-05-13T16:59:42.695Z,100965.38
2023-05-13T17:02:09.662Z,100970.63
2023-05-13T17:04:37.003Z,100978.55
2023-05-13T17:07:04.102Z,100995.79
2023-05-13T17:09:31.160Z,101020.73
2023-05-13T17:11:58.073Z,101025.86
2023-05-13T17:14:25.390Z,101025.84
2023-05-13T17:16:53.038Z,101033.85
2023-05-13T17:19:20.188Z,101062.17
2023-05-13T17:21:47.610Z,101113.31
2023-05-13T17:24:14.922Z,101109.42
2023-05-13T17:26:41.884Z,101047.98
2023-05-13T17:29:09.110Z,101027.69
2023-05-13T17:31:36.094Z,101009.98
2023-05-13T17:34:03.167Z,101010.86
2023-05-13T17:36:32.224Z,101006.70
2023-05-13T17:38:59.207Z,101005.70
2023-05-13T17:41:26.229Z,101009.52
2023-05-13T17:43:53.199Z,101007.06
2023-05-13T17:46:20.686Z,101008.66
2023-05-13T17:48:47.932Z,101005.18
2023-05-13T17:51:15.109Z,101009.35
2023-05-13T17:53:42.228Z,101003.61
2023-05-13T17:56:10.469Z,101002.33
2023-05-13T17:58:43.132Z,100999.67
2023-05-13T18:01:21.191Z,100994.68
2023-05-13T18:03:48.418Z,100995.44
2023-05-13T18:06:15.725Z,100992.77
2023-05-13T18:08:45.659Z,100993.45
2023-05-13T18:11:12.889Z,100994.64
2023-05-13T18:13:40.397Z,100994.48
2023-05-13T18:16:08.933Z,100994.52
2023-05-13T18:18:36.518Z,100997.42
2023-05-13T18:21:04.124Z,100999.89
2023-05-13T18:23:33.092Z,101004.52
2023-05-13T18:26:00.674Z,101009.69
2023-05-13T18:28:30.387Z,101007.10
2023-05-13T18:30:57.499Z,101011.96
2023-05-13T18:33:24.838Z,101011.95
2023-05-13T18:35:52.929Z,101015.09
2023-05-13T18:38:23.350Z,101012.89
2023-05-13T18:40:53.596Z,101013.19
2023-05-13T18:49:18.029Z,101016.90
2023-05-13T18:51:47.129Z,101018.21
2023-05-13T18:54:19.323Z,101019.44
2023-05-13T18:56:48.831Z,101016.36
2023-05-13T18:59:17.231Z,101019.98
2023-05-13T19:01:46.158Z,101021.95
2023-05-13T19:04:15.660Z,101024.20
2023-05-13T19:06:44.329Z,101023.75
2023-05-13T19:09:12.733Z,101019.98
2023-05-13T19:11:41.126Z,101020.98
2023-05-13T19:14:09.444Z,101021.24
2023-05-13T19:16:38.130Z,101019.59
2023-05-13T19:19:06.788Z,101015.09
2023-05-13T19:21:35.268Z,101018.80
2023-05-13T19:24:03.758Z,101017.34
2023-05-13T19:26:32.171Z,101017.57
2023-05-13T19:29:00.683Z,101018.61
2023-05-13T19:31:29.755Z,101021.62
2023-05-13T19:33:58.190Z,101018.80
2023-05-13T19:36:26.758Z,101023.52
2023-05-13T19:38:55.875Z,101023.27
2023-05-13T19:41:24.230Z,101021.93
2023-05-13T19:43:52.774Z,101019.81
2023-05-13T19:46:21.414Z,101022.34
2023-05-13T19:48:50.116Z,101024.47
2023-05-13T19:51:18.646Z,101026.08
2023-05-13T19:53:47.087Z,101030.23
2023-05-13T19:56:15.567Z,101032.11
2023-05-13T19:58:44.058Z,101033.46
2023-05-13T20:01:15.069Z,101036.02
2023-05-13T20:03:43.641Z,101033.71
2023-05-13T20:06:12.300Z,101034.78
2023-05-13T20:08:41.574Z,101029.48
2023-05-13T20:11:10.825Z,101028.59
2023-05-13T20:13:39.334Z,101027.12
2023-05-13T20:16:08.105Z,101027.70
2023-05-13T20:18:36.571Z,101027.56
2023-05-13T20:21:05.098Z,101029.92
2023-05-13T20:23:33.469Z,101030.25
2023-05-13T20:26:02.445Z,101030.54
2023-05-13T20:28:30.957Z,101028.90
2023-05-13T20:31:02.008Z,101031.02
2023-05-13T20:33:30.523Z,101029.57
2023-05-13T20:35:59.028Z,101030.14
2023-05-13T20:38:27.598Z,101027.99
2023-05-13T20:40:56.230Z,101028.28
2023-05-13T20:43:25.920Z,101030.52
2023-05-13T20:45:54.332Z,101030.02
2023-05-13T20:48:23.002Z,101035.77
2023-05-13T20:50:59.042Z,101035.50
2023-05-13T20:53:27.829Z,101035.61
2023-05-13T20:55:56.293Z,101031.64
2023-05-13T20:58:24.814Z,101030.91
2023-05-13T21:00:53.505Z,101029.96
2023-05-13T21:03:22.572Z,101026.88
2023-05-13T21:05:51.177Z,101026.81
2023-05-13T21:08:19.588Z,101020.16
2023-05-13T21:10:47.878Z,101019.20
2023-05-13T21:13:17.131Z,101022.66
2023-05-13T21:15:45.671Z,101021.91
2023-05-13T21:18:14.115Z,101023.05
2023-05-13T21:20:42.461Z,101021.45
2023-05-13T21:23:11.007Z,101016.41
2023-05-13T21:25:39.630Z,101020.25
2023-05-13T21:28:08.144Z,101016.41
2023-05-13T21:30:36.465Z,101018.14
2023-05-13T21:33:05.021Z,101017.30
2023-05-13T21:35:33.376Z,101014.70
2023-05-13T21:38:11.484Z,101013.92
2023-05-13T21:40:40.956Z,101011.45
2023-05-13T21:43:09.723Z,101011.48
2023-05-13T21:45:38.190Z,101013.65
2023-05-13T21:48:07.055Z,101017.24
2023-05-13T21:50:35.720Z,101018.61
2023-05-13T21:53:05.210Z,101018.80
2023-05-13T21:55:35.216Z,101017.08
2023-05-13T21:58:03.701Z,101015.02
2023-05-13T22:00:32.131Z,101012.55
2023-05-13T22:03:01.598Z,101016.92
2023-05-13T22:05:30.100Z,101013.10
2023-05-13T22:08:00.357Z,101017.34
2023-05-13T22:10:28.837Z,101016.19
2023-05-13T22:12:57.236Z,101015.52
2023-05-13T22:15:25.534Z,101017.02
2023-05-13T22:17:54.229Z,101016.03
2023-05-13T22:20:23.088Z,101014.52
2023-05-13T22:22:51.722Z,101014.20
2023-05-13T22:25:20.138Z,101013.59
2023-05-13T22:27:49.047Z,101017.22
2023-05-13T22:30:17.517Z,101015.13
2023-05-13T22:32:46.038Z,101011.39
2023-05-13T22:35:14.675Z,101011.16
2023-05-13T22:37:43.243Z,101012.92
2023-05-13T22:40:12.135Z,101010.67
2023-05-13T22:42:40.597Z,101014.02
2023-05-13T22:45:09.626Z,101019.08
2023-05-13T22:47:37.984Z,101019.83
2023-05-13T22:50:24.990Z,101018.12
2023-05-13T22:52:53.568Z,101015.17
2023-05-13T22:55:21.948Z,101013.11
2023-05-13T22:57:50.253Z,101012.41
2023-05-13T23:00:18.647Z,101013.13
2023-05-13T23:02:47.045Z,101012.40
2023-05-13T23:05:15.782Z,101010.34
2023-05-13T23:07:44.167Z,101010.98
2023-05-13T23:10:12.482Z,101012.35
2023-05-13T23:12:40.881Z,101016.88
2023-05-13T23:15:11.847Z,101018.20
2023-05-13T23:17:40.328Z,101019.80
2023-05-13T23:20:09.225Z,101024.77
2023-05-13T23:22:38.697Z,101020.16
2023-05-13T23:25:08.104Z,101022.75
2023-05-13T23:27:36.504Z,101018.90
2023-05-13T23:30:05.561Z,101019.44
2023-05-13T23:32:33.938Z,101018.89
2023-05-13T23:35:02.607Z,101021.70
2023-05-13T23:37:31.400Z,101021.55
2023-05-13T23:39:59.944Z,101015.00
2023-05-13T23:42:28.697Z,101014.80
2023-05-13T23:44:57.333Z,101015.23
2023-05-13T23:47:25.784Z,101017.39
2023-05-13T23:49:54.184Z,101025.46
2023-05-13T23:52:22.767Z,101031.78
2023-05-13T23:54:51.202Z,101032.38
2023-05-13T23:57:19.689Z,101023.83
2023-05-13T23:59:49.150Z,101026.66
